Woodville, Illinois
Current Conditions -  °F | °C
As of 10:54 PM on Thursday 27 Nov 2014 (Local Time) from KSET Reporting Station
Broken Clouds Broken Clouds  
Wind Chill: 16°   Ceiling: 12000
Heat Index: 25°   Visibility: 10mi
Dew Point: 19°   Wind: 9mph
Humidity: 78%   Direction: 110°ESE
Pressure: 30.44"   Gusts: NA
Location:  39.2901°N, 90.5384°W
Report Text: KSET 280454Z AUTO 11008KT 10SM BKN120 M04/M07 A3044 RMK AO2 SLP310 T10391072
Loading
Personal Weather Stations






























Interactive Weather Map New forecast layout! Learn more

10-Day Weather Forecast

Advertisements
Track Severe Weather on mobile